Time;durP1;ratioP1;P1;durP2;ratioP2;P2;SDS_P1;SDS_P2;PMS_P1;PMS_P2;Temp;Humidity;BMP_temperature;BMP_pressure;BME280_temperature;BME280_humidity;BME280_pressure;Samples;Min_cycle;Max_cycle;Signal;HPM_P1;HPM_P2
2023/04/18 00:00:14;;;;;;;22.23;16.83;;;12.60;99.90;;;;;;4946379;28;20244;-42
2023/04/18 00:02:42;;;;;;;20.80;16.00;;;12.50;99.90;;;;;;4946392;28;20298;-43
2023/04/18 00:05:16;;;;;;;21.20;16.30;;;12.50;99.90;;;;;;4946580;28;20336;-43
2023/04/18 00:07:46;;;;;;;20.20;16.07;;;12.50;99.90;;;;;;4945717;28;20218;-43
2023/04/18 00:10:14;;;;;;;20.47;16.70;;;12.50;99.90;;;;;;4945393;28;20340;-43
2023/04/18 00:12:46;;;;;;;23.10;16.33;;;12.40;99.90;;;;;;4945003;28;20267;-43
2023/04/18 00:15:15;;;;;;;21.37;16.53;;;12.40;99.90;;;;;;4925752;29;20578;-43
2023/04/18 00:17:43;;;;;;;19.17;15.97;;;12.40;99.90;;;;;;4946100;28;20294;-41
2023/04/18 00:20:12;;;;;;;21.27;16.53;;;12.30;99.90;;;;;;4946238;28;20207;-43
2023/04/18 00:22:45;;;;;;;17.57;15.60;;;12.30;99.90;;;;;;4945853;28;20246;-46
2023/04/18 00:25:18;;;;;;;18.03;14.90;;;12.30;99.90;;;;;;4945237;29;20290;-42
2023/04/18 00:27:47;;;;;;;18.83;15.10;;;12.30;99.90;;;;;;4945241;28;20215;-42
2023/04/18 00:30:14;;;;;;;19.47;15.23;;;12.20;99.90;;;;;;4976029;28;20212;-41
2023/04/18 00:32:41;;;;;;;18.50;15.43;;;12.20;99.90;;;;;;4944341;29;20579;-41
2023/04/18 00:35:13;;;;;;;22.60;15.80;;;12.10;99.90;;;;;;4945775;28;20723;-41
2023/04/18 00:37:40;;;;;;;18.50;15.70;;;12.10;99.90;;;;;;4944286;29;20212;-41
2023/04/18 00:40:08;;;;;;;18.90;14.67;;;12.10;99.90;;;;;;4945056;28;20742;-41
2023/04/18 00:42:37;;;;;;;21.03;15.77;;;12.00;99.90;;;;;;4946410;28;20208;-41
2023/04/18 00:45:07;;;;;;;19.73;16.10;;;12.00;99.90;;;;;;4945942;28;20227;-40
2023/04/18 00:47:37;;;;;;;19.53;15.60;;;12.00;99.90;;;;;;4945297;28;20211;-41
2023/04/18 00:50:08;;;;;;;18.57;15.97;;;11.90;99.90;;;;;;4975632;28;20331;-41
2023/04/18 00:52:35;;;;;;;20.10;16.33;;;11.80;99.90;;;;;;4944022;28;20704;-41
2023/04/18 00:55:07;;;;;;;20.53;15.77;;;11.80;99.90;;;;;;4976336;28;20219;-41
2023/04/18 00:57:35;;;;;;;19.90;15.40;;;11.70;99.90;;;;;;4945762;28;20207;-42
2023/04/18 01:00:09;;;;;;;17.40;14.50;;;11.70;99.90;;;;;;4957005;28;20244;-41
2023/04/18 01:02:41;;;;;;;17.17;15.20;;;11.60;99.90;;;;;;4959274;28;20618;-41
2023/04/18 01:05:13;;;;;;;19.67;15.03;;;11.60;99.90;;;;;;4945089;28;20219;-41
2023/04/18 01:07:48;;;;;;;18.47;15.73;;;11.50;99.90;;;;;;4945601;28;20270;-41
2023/04/18 01:10:20;;;;;;;20.57;16.30;;;11.50;99.90;;;;;;4958614;28;20325;-41
2023/04/18 01:12:48;;;;;;;20.07;16.37;;;11.40;99.90;;;;;;4945686;29;20322;-42
2023/04/18 01:15:15;;;;;;;19.47;16.27;;;11.40;99.90;;;;;;4944837;28;20246;-41
2023/04/18 01:17:47;;;;;;;22.00;16.67;;;11.30;99.90;;;;;;4943741;28;20298;-41
2023/04/18 01:20:19;;;;;;;20.57;16.17;;;11.30;99.90;;;;;;4943164;28;20211;-41
2023/04/18 01:22:49;;;;;;;21.63;16.77;;;11.20;99.90;;;;;;4976456;28;20255;-41
2023/04/18 01:25:19;;;;;;;23.80;17.13;;;11.20;99.90;;;;;;4961072;28;20701;-42
2023/04/18 01:27:50;;;;;;;19.93;16.03;;;11.20;99.90;;;;;;4954909;28;20293;-43
2023/04/18 01:30:18;;;;;;;18.93;15.33;;;11.10;99.90;;;;;;4949589;28;20238;-41
2023/04/18 01:32:45;;;;;;;20.03;15.97;;;11.10;99.90;;;;;;4942861;28;20615;-43
2023/04/18 01:35:12;;;;;;;20.07;16.17;;;11.00;99.90;;;;;;4945145;28;20303;-41
2023/04/18 01:37:42;;;;;;;20.67;15.57;;;11.00;99.90;;;;;;4944760;29;20748;-42
2023/04/18 01:40:12;;;;;;;23.97;15.80;;;10.90;99.90;;;;;;4944028;28;20315;-42
2023/04/18 01:42:39;;;;;;;21.80;16.37;;;10.90;99.90;;;;;;4976275;28;20343;-41
2023/04/18 01:45:13;;;;;;;20.30;15.03;;;10.90;99.90;;;;;;4942537;28;20731;-43
2023/04/18 01:47:40;;;;;;;18.33;15.30;;;10.90;99.90;;;;;;4943278;28;20238;-41
2023/04/18 01:50:10;;;;;;;22.27;17.10;;;10.90;99.90;;;;;;4945118;28;20630;-42
2023/04/18 01:52:40;;;;;;;20.20;16.07;;;10.90;99.90;;;;;;4945699;28;20203;-43
2023/04/18 01:55:10;;;;;;;18.60;16.00;;;10.90;99.90;;;;;;4943760;28;20219;-43
2023/04/18 01:57:39;;;;;;;20.77;16.67;;;10.80;99.90;;;;;;4976379;28;20224;-43
2023/04/18 02:00:12;;;;;;;19.13;16.13;;;10.80;99.90;;;;;;4947002;28;20235;-43
2023/04/18 02:02:39;;;;;;;20.40;16.70;;;10.80;99.90;;;;;;4979608;28;20243;-43
2023/04/18 02:05:09;;;;;;;20.30;15.97;;;10.80;99.90;;;;;;4962191;28;20231;-43
2023/04/18 02:07:39;;;;;;;19.70;15.80;;;10.70;99.90;;;;;;4979726;28;20235;-41
2023/04/18 02:10:10;;;;;;;18.90;15.10;;;10.70;99.90;;;;;;4945981;29;20298;-41
2023/04/18 02:12:37;;;;;;;21.13;16.00;;;10.70;99.90;;;;;;4947230;28;20204;-44
2023/04/18 02:15:07;;;;;;;20.30;16.20;;;10.70;99.90;;;;;;4948073;28;20223;-44
2023/04/18 02:17:35;;;;;;;18.80;15.73;;;10.70;99.90;;;;;;4947378;29;20226;-43
2023/04/18 02:20:06;;;;;;;18.97;15.60;;;10.70;99.90;;;;;;4979007;28;20231;-42
2023/04/18 02:22:36;;;;;;;21.13;15.47;;;10.60;99.90;;;;;;4947525;29;20230;-43
2023/04/18 02:25:06;;;;;;;19.63;16.00;;;10.60;99.90;;;;;;4946039;29;20571;-43
2023/04/18 02:27:34;;;;;;;19.37;16.13;;;10.50;99.90;;;;;;4948383;28;20209;-43
2023/04/18 02:30:03;;;;;;;19.40;15.73;;;10.50;99.90;;;;;;4947211;28;20204;-43
2023/04/18 02:32:33;;;;;;;20.33;16.50;;;10.50;99.90;;;;;;4948588;28;20207;-43
2023/04/18 02:35:00;;;;;;;19.17;14.87;;;10.50;99.90;;;;;;4947672;28;20207;-43
2023/04/18 02:37:27;;;;;;;16.43;13.83;;;10.40;99.90;;;;;;4948448;28;20207;-43
2023/04/18 02:39:54;;;;;;;19.97;15.20;;;10.40;99.90;;;;;;4946831;28;20685;-43
2023/04/18 02:42:26;;;;;;;17.97;14.70;;;10.40;99.90;;;;;;4947960;28;20716;-42
2023/04/18 02:44:54;;;;;;;18.90;14.87;;;10.40;99.90;;;;;;4977748;28;20234;-43
2023/04/18 02:47:26;;;;;;;17.33;15.07;;;10.30;99.90;;;;;;4976979;28;20203;-43
2023/04/18 02:49:53;;;;;;;18.13;15.23;;;10.30;99.90;;;;;;4978474;28;21035;-43
2023/04/18 02:52:26;;;;;;;18.53;15.83;;;10.30;99.90;;;;;;4978095;28;20753;-43
2023/04/18 02:54:53;;;;;;;19.43;14.43;;;10.30;99.90;;;;;;4944956;29;20326;-43
2023/04/18 02:57:22;;;;;;;18.07;14.63;;;10.30;99.90;;;;;;4944610;29;20286;-43
2023/04/18 02:59:54;;;;;;;17.73;14.90;;;10.30;99.90;;;;;;4947268;28;20345;-43
2023/04/18 03:02:21;;;;;;;18.93;14.90;;;10.20;99.90;;;;;;4947648;28;20216;-43
2023/04/18 03:04:49;;;;;;;16.73;14.47;;;10.20;99.90;;;;;;4947409;28;20269;-43
2023/04/18 03:07:18;;;;;;;19.57;15.07;;;10.20;99.90;;;;;;4961388;28;20206;-42
2023/04/18 03:09:45;;;;;;;17.83;14.60;;;10.20;99.90;;;;;;4945973;28;20552;-43
2023/04/18 03:12:12;;;;;;;18.60;14.50;;;10.20;99.90;;;;;;4946098;28;20310;-42
2023/04/18 03:14:40;;;;;;;18.23;14.63;;;10.10;99.90;;;;;;4947411;28;20782;-43
2023/04/18 03:17:09;;;;;;;17.63;14.43;;;10.10;99.90;;;;;;4975647;28;20230;-43
2023/04/18 03:19:44;;;;;;;17.13;14.23;;;10.10;99.90;;;;;;4946946;28;20207;-42
2023/04/18 03:22:12;;;;;;;21.13;15.07;;;10.10;99.90;;;;;;4947312;28;20640;-42
2023/04/18 03:24:40;;;;;;;18.93;13.93;;;10.10;99.90;;;;;;4947660;28;20227;-43
2023/04/18 03:27:08;;;;;;;17.40;13.97;;;10.10;99.90;;;;;;4943922;28;20207;-43
2023/04/18 03:29:35;;;;;;;17.37;14.30;;;10.00;99.90;;;;;;4977945;28;20468;-43
2023/04/18 03:32:02;;;;;;;17.40;13.87;;;10.00;99.90;;;;;;4947278;28;20752;-43
2023/04/18 03:34:31;;;;;;;18.20;13.83;;;10.00;99.90;;;;;;4977440;28;20216;-43
2023/04/18 03:36:59;;;;;;;19.30;14.27;;;10.00;99.90;;;;;;4946637;28;20210;-43
2023/04/18 03:39:28;;;;;;;16.70;14.27;;;10.00;99.90;;;;;;4946538;29;20689;-43
2023/04/18 03:41:58;;;;;;;16.53;13.17;;;10.00;99.90;;;;;;4945434;28;20318;-43
2023/04/18 03:44:27;;;;;;;16.60;14.47;;;10.00;99.90;;;;;;4977770;28;20254;-43
2023/04/18 03:46:56;;;;;;;17.87;13.83;;;10.00;99.90;;;;;;4945813;28;20199;-43
2023/04/18 03:49:25;;;;;;;16.50;13.47;;;9.90;99.90;;;;;;4945012;29;20222;-43
2023/04/18 03:51:52;;;;;;;18.00;14.13;;;9.90;99.90;;;;;;4945115;29;20210;-43
2023/04/18 03:54:22;;;;;;;16.93;13.47;;;9.90;99.90;;;;;;4929676;29;20361;-43
2023/04/18 03:56:52;;;;;;;17.77;13.80;;;9.90;99.90;;;;;;4944422;28;20212;-43
2023/04/18 03:59:19;;;;;;;17.30;13.07;;;9.90;99.90;;;;;;4946576;28;20743;-43
2023/04/18 04:01:49;;;;;;;15.63;12.93;;;9.80;99.90;;;;;;4946125;29;20294;-43
2023/04/18 04:04:18;;;;;;;19.03;13.27;;;9.80;99.90;;;;;;4946004;28;20267;-43
2023/04/18 04:06:51;;;;;;;17.80;12.67;;;9.80;99.90;;;;;;4945280;28;20693;-43
2023/04/18 04:09:18;;;;;;;18.43;13.40;;;9.80;99.90;;;;;;4946153;28;20199;-43
2023/04/18 04:11:45;;;;;;;19.60;13.73;;;9.80;99.90;;;;;;4944167;28;20625;-43
2023/04/18 04:14:17;;;;;;;19.23;14.17;;;9.80;99.90;;;;;;4946423;28;20647;-43
2023/04/18 04:16:44;;;;;;;14.87;12.50;;;9.70;99.90;;;;;;4944279;29;20215;-43
2023/04/18 04:19:12;;;;;;;18.67;13.83;;;9.70;99.90;;;;;;4946035;29;20729;-43
2023/04/18 04:21:39;;;;;;;16.93;12.80;;;9.70;99.90;;;;;;4945920;28;20238;-43
2023/04/18 04:24:09;;;;;;;16.87;13.33;;;9.60;99.90;;;;;;4945506;28;20303;-43
2023/04/18 04:26:41;;;;;;;14.23;12.40;;;9.60;99.90;;;;;;4944847;28;20628;-43
2023/04/18 04:29:14;;;;;;;14.70;11.87;;;9.60;99.90;;;;;;4945883;28;20219;-43
2023/04/18 04:31:42;;;;;;;15.23;12.30;;;9.60;99.90;;;;;;4976147;28;20942;-42
2023/04/18 04:34:11;;;;;;;19.40;12.13;;;9.60;99.90;;;;;;4946489;28;20294;-43
2023/04/18 04:36:45;;;;;;;17.00;13.50;;;9.50;99.90;;;;;;4975660;28;20211;-43
2023/04/18 04:39:16;;;;;;;16.63;12.20;;;9.50;99.90;;;;;;4960476;28;20207;-43
2023/04/18 04:41:48;;;;;;;15.77;12.20;;;9.50;99.90;;;;;;4944646;28;20215;-43
2023/04/18 04:44:18;;;;;;;14.80;11.77;;;9.50;99.90;;;;;;4976173;28;20327;-43
2023/04/18 04:46:46;;;;;;;14.57;11.73;;;9.50;99.90;;;;;;4945774;28;20211;-43
2023/04/18 04:49:13;;;;;;;16.73;11.43;;;9.50;99.90;;;;;;4946212;28;20212;-43
2023/04/18 04:51:43;;;;;;;16.30;12.63;;;9.40;99.90;;;;;;4972954;28;20660;-43
2023/04/18 04:54:12;;;;;;;16.20;12.03;;;9.40;99.90;;;;;;4942011;29;20218;-43
2023/04/18 04:56:47;;;;;;;17.33;12.70;;;9.40;99.90;;;;;;4942195;28;20216;-43
2023/04/18 04:59:17;;;;;;;15.07;11.97;;;9.30;99.90;;;;;;4943001;28;20711;-43
2023/04/18 05:01:45;;;;;;;14.87;11.43;;;9.30;99.90;;;;;;4931759;29;20710;-43
2023/04/18 05:04:15;;;;;;;13.43;11.93;;;9.30;99.90;;;;;;4939932;28;20227;-43
2023/04/18 05:06:49;;;;;;;17.93;12.07;;;9.30;99.90;;;;;;4936329;28;20725;-42
2023/04/18 05:09:21;;;;;;;19.13;12.20;;;9.30;99.90;;;;;;4939067;28;20573;-42
2023/04/18 05:11:50;;;;;;;19.37;12.23;;;9.30;99.90;;;;;;4970080;28;20314;-43
2023/04/18 05:14:20;;;;;;;14.17;11.57;;;9.30;99.90;;;;;;4944124;28;20322;-43
2023/04/18 05:16:47;;;;;;;15.93;12.03;;;9.30;99.90;;;;;;4943937;28;20618;-43
2023/04/18 05:19:14;;;;;;;18.90;11.97;;;9.30;99.90;;;;;;4956152;28;20202;-43
2023/04/18 05:21:44;;;;;;;14.33;11.30;;;9.30;99.90;;;;;;4964889;28;20333;-43
2023/04/18 05:24:11;;;;;;;14.37;10.97;;;9.20;99.90;;;;;;4958292;28;20215;-43
2023/04/18 05:26:44;;;;;;;16.80;11.90;;;9.20;99.90;;;;;;4974379;28;20227;-42
2023/04/18 05:29:11;;;;;;;17.37;11.73;;;9.20;99.90;;;;;;4953646;28;20218;-42
2023/04/18 05:31:38;;;;;;;17.83;11.37;;;9.20;99.90;;;;;;4964758;28;20195;-43
2023/04/18 05:34:07;;;;;;;18.53;11.50;;;9.20;99.90;;;;;;4972480;28;20206;-43
2023/04/18 05:36:37;;;;;;;14.80;11.73;;;9.20;99.90;;;;;;4961933;28;20241;-43
2023/04/18 05:39:04;;;;;;;18.77;12.30;;;9.20;99.90;;;;;;4969893;28;20287;-43
2023/04/18 05:41:33;;;;;;;14.77;11.23;;;9.20;99.90;;;;;;4966784;28;20247;-43
2023/04/18 05:44:05;;;;;;;13.07;11.20;;;9.10;99.90;;;;;;4965262;28;20208;-43
2023/04/18 05:46:35;;;;;;;14.20;10.90;;;9.10;99.90;;;;;;4945654;28;20289;-43
2023/04/18 05:49:07;;;;;;;15.07;10.80;;;9.10;99.90;;;;;;4946243;28;20212;-43
2023/04/18 05:51:34;;;;;;;14.60;11.40;;;9.10;99.90;;;;;;4947781;28;20211;-43
2023/04/18 05:54:02;;;;;;;15.67;10.37;;;9.10;99.90;;;;;;4947038;29;20626;-43
2023/04/18 05:56:33;;;;;;;16.00;10.70;;;9.10;99.90;;;;;;4977514;28;20215;-43
2023/04/18 05:59:01;;;;;;;13.23;10.67;;;9.20;99.90;;;;;;4947691;28;20211;-43
2023/04/18 06:01:28;;;;;;;14.63;10.43;;;9.10;99.90;;;;;;4943526;28;20261;-43
2023/04/18 06:03:58;;;;;;;15.57;11.20;;;9.20;99.90;;;;;;4938908;28;20219;-44
2023/04/18 06:06:30;;;;;;;15.67;11.10;;;9.20;99.90;;;;;;4938799;28;20353;-43
2023/04/18 06:08:59;;;;;;;15.13;10.10;;;9.20;99.90;;;;;;4958928;28;20211;-41
2023/04/18 06:11:32;;;;;;;14.27;10.50;;;9.20;99.90;;;;;;4944968;28;20250;-43
2023/04/18 06:13:59;;;;;;;13.10;10.30;;;9.20;99.90;;;;;;4946244;28;20208;-43
2023/04/18 06:16:30;;;;;;;14.03;11.63;;;9.20;99.90;;;;;;4957135;28;20215;-43
2023/04/18 06:18:58;;;;;;;14.43;10.03;;;9.20;99.90;;;;;;4934571;29;20214;-43
2023/04/18 06:21:31;;;;;;;14.27;11.13;;;9.20;99.90;;;;;;4945987;28;20234;-44
2023/04/18 06:24:00;;;;;;;12.50;9.93;;;9.10;99.90;;;;;;4947438;28;20207;-41
2023/04/18 06:26:32;;;;;;;12.63;9.30;;;9.10;99.90;;;;;;4961917;28;20556;-43
2023/04/18 06:29:02;;;;;;;14.13;10.50;;;9.20;99.90;;;;;;4947831;28;20227;-44
2023/04/18 06:31:34;;;;;;;15.20;10.40;;;9.30;99.90;;;;;;4944093;28;20226;-44
2023/04/18 06:34:01;;;;;;;12.13;9.80;;;9.30;99.90;;;;;;4948358;28;20677;-43
2023/04/18 06:36:33;;;;;;;14.70;10.03;;;9.30;99.90;;;;;;4960956;28;20666;-43
2023/04/18 06:39:02;;;;;;;14.10;9.57;;;9.30;99.90;;;;;;4946663;28;20660;-42
2023/04/18 06:41:30;;;;;;;11.67;9.73;;;9.30;99.90;;;;;;4953404;28;20208;-44
2023/04/18 06:44:00;;;;;;;10.87;9.23;;;9.30;99.90;;;;;;4942515;29;20639;-44
2023/04/18 06:46:41;;;;;;;14.17;10.37;;;9.40;99.90;;;;;;4942723;28;20223;-44
2023/04/18 06:49:09;;;;;;;14.77;10.40;;;9.40;99.90;;;;;;4945716;29;20208;-44
2023/04/18 06:51:36;;;;;;;12.73;9.77;;;9.40;99.90;;;;;;4957315;28;20216;-44
2023/04/18 06:54:03;;;;;;;14.63;10.17;;;9.50;99.90;;;;;;4973954;28;20251;-42
2023/04/18 06:56:32;;;;;;;14.93;9.97;;;9.50;99.90;;;;;;4961098;28;20247;-43
2023/04/18 06:59:16;;;;;;;13.53;9.93;;;9.50;99.90;;;;;;4956388;28;20240;-43
2023/04/18 07:01:43;;;;;;;10.53;9.37;;;9.50;99.90;;;;;;4958500;28;20235;-43
2023/04/18 07:04:13;;;;;;;15.53;9.80;;;9.60;99.90;;;;;;4967927;28;20267;-43
2023/04/18 07:06:45;;;;;;;12.03;9.63;;;9.60;99.90;;;;;;4934449;29;20231;-43
2023/04/18 07:09:15;;;;;;;14.10;10.63;;;9.60;99.90;;;;;;4946443;28;20298;-43
2023/04/18 07:11:44;;;;;;;10.57;9.43;;;9.60;99.90;;;;;;4946725;28;20591;-43
2023/04/18 07:14:14;;;;;;;12.73;9.73;;;9.60;99.90;;;;;;4943013;28;20611;-42
2023/04/18 07:16:42;;;;;;;11.20;9.73;;;9.70;99.90;;;;;;4956407;28;20528;-43
2023/04/18 07:19:12;;;;;;;12.70;10.17;;;9.70;99.90;;;;;;4958266;28;20204;-43
2023/04/18 07:21:43;;;;;;;13.13;9.40;;;9.70;99.90;;;;;;4927970;29;20307;-43
2023/04/18 07:24:18;;;;;;;13.10;10.37;;;9.70;99.90;;;;;;4935625;28;20219;-43
2023/04/18 07:26:48;;;;;;;11.40;9.43;;;9.80;99.90;;;;;;4956692;28;20701;-43
2023/04/18 07:29:21;;;;;;;12.37;9.97;;;9.80;99.90;;;;;;4953905;28;20216;-43
2023/04/18 07:31:48;;;;;;;11.90;10.33;;;9.90;99.90;;;;;;4945920;28;20216;-43
2023/04/18 07:34:16;;;;;;;12.80;9.60;;;9.90;99.90;;;;;;4960556;28;20207;-43
2023/04/18 07:36:43;;;;;;;12.87;10.33;;;10.00;99.90;;;;;;4946380;28;20279;-43
2023/04/18 07:39:18;;;;;;;11.63;9.90;;;10.10;99.90;;;;;;4944157;29;20211;-43
2023/04/18 07:41:50;;;;;;;12.03;9.83;;;10.20;99.90;;;;;;4939458;28;20774;-42
2023/04/18 07:44:20;;;;;;;13.27;10.17;;;10.20;99.90;;;;;;4957715;28;20754;-43
2023/04/18 07:46:49;;;;;;;11.93;9.73;;;10.30;99.90;;;;;;4953188;28;20791;-43
2023/04/18 07:49:16;;;;;;;11.53;9.97;;;10.40;99.90;;;;;;4927428;29;20247;-43
2023/04/18 07:51:46;;;;;;;13.80;10.00;;;10.40;99.90;;;;;;4969227;28;21138;-42
2023/04/18 07:54:15;;;;;;;15.17;11.03;;;10.50;99.90;;;;;;4943909;28;20211;-43
2023/04/18 07:56:45;;;;;;;11.53;10.30;;;10.50;99.90;;;;;;4972368;28;20569;-43
2023/04/18 07:59:12;;;;;;;12.47;10.73;;;10.50;99.90;;;;;;4943840;28;20665;-43
2023/04/18 08:01:42;;;;;;;14.40;10.00;;;10.50;99.90;;;;;;4939571;28;20742;-44
2023/04/18 08:04:10;;;;;;;12.37;10.73;;;10.60;99.90;;;;;;4957619;28;20215;-43
2023/04/18 08:06:38;;;;;;;13.77;10.37;;;10.60;99.90;;;;;;4957619;28;20238;-42
2023/04/18 08:09:07;;;;;;;12.80;11.17;;;10.60;99.90;;;;;;4945839;28;20207;-43
2023/04/18 08:11:40;;;;;;;13.37;11.40;;;10.60;99.90;;;;;;4974383;28;20331;-43
2023/04/18 08:14:07;;;;;;;12.60;10.10;;;10.60;99.90;;;;;;4933326;28;20216;-43
2023/04/18 08:16:34;;;;;;;11.03;9.47;;;10.70;99.90;;;;;;4941350;28;20230;-43
2023/04/18 08:19:05;;;;;;;13.80;10.90;;;10.70;99.90;;;;;;4945952;28;20314;-43
2023/04/18 08:21:34;;;;;;;12.17;10.57;;;10.70;99.90;;;;;;4954880;28;20207;-43
2023/04/18 08:24:03;;;;;;;12.57;10.40;;;10.80;99.90;;;;;;4944550;28;20310;-45
2023/04/18 08:26:31;;;;;;;13.73;10.77;;;10.80;99.90;;;;;;4945526;28;20223;-42
2023/04/18 08:28:58;;;;;;;15.23;11.33;;;10.90;99.90;;;;;;4944542;28;20231;-43
2023/04/18 08:31:27;;;;;;;13.40;11.10;;;10.90;99.90;;;;;;4945626;28;20234;-43
2023/04/18 08:34:03;;;;;;;11.43;10.23;;;11.00;99.90;;;;;;4958364;28;20227;-44
2023/04/18 08:36:34;;;;;;;15.00;11.97;;;11.00;99.90;;;;;;4956163;28;20243;-43
2023/04/18 08:39:01;;;;;;;15.77;11.70;;;11.10;99.90;;;;;;4933947;28;20200;-44
2023/04/18 08:41:36;;;;;;;13.47;10.80;;;11.20;99.90;;;;;;4955490;28;20604;-43
2023/04/18 08:44:05;;;;;;;11.73;10.20;;;11.20;99.90;;;;;;4944908;28;20604;-44
2023/04/18 08:46:34;;;;;;;13.70;12.27;;;11.40;99.90;;;;;;4945604;28;20235;-44
2023/04/18 08:49:10;;;;;;;13.70;11.57;;;11.40;99.90;;;;;;4945392;28;20211;-45
2023/04/18 08:51:44;;;;;;;16.10;11.73;;;11.50;99.90;;;;;;4946986;28;20690;-44
2023/04/18 08:54:17;;;;;;;13.47;11.40;;;11.50;99.90;;;;;;4944750;28;20700;-44
2023/04/18 08:56:44;;;;;;;20.27;12.40;;;11.60;99.90;;;;;;4941833;28;20361;-43
2023/04/18 08:59:11;;;;;;;14.53;11.13;;;11.70;99.90;;;;;;4933554;28;20226;-43
2023/04/18 09:01:57;;;;;;;18.07;12.07;;;11.70;99.90;;;;;;4974930;28;20528;-43
2023/04/18 09:04:31;;;;;;;14.57;12.37;;;11.80;99.90;;;;;;4945436;28;20207;-43
2023/04/18 09:07:07;;;;;;;16.80;13.40;;;11.90;99.90;;;;;;4942862;28;20795;-43
2023/04/18 09:09:57;;;;;;;14.77;11.83;;;11.90;99.90;;;;;;4971921;28;20208;-44
2023/04/18 09:12:28;;;;;;;17.47;13.33;;;12.00;99.90;;;;;;4940452;28;20231;-43
2023/04/18 09:15:14;;;;;;;18.47;13.40;;;12.10;99.90;;;;;;4942483;28;20677;-43
2023/04/18 09:17:49;;;;;;;17.60;14.30;;;12.20;99.90;;;;;;4955039;28;20243;-43
2023/04/18 09:20:25;;;;;;;17.50;14.37;;;12.20;99.90;;;;;;4936988;28;20217;-43
2023/04/18 09:22:59;;;;;;;22.70;14.40;;;12.30;99.90;;;;;;4942597;28;20934;-44
2023/04/18 09:25:46;;;;;;;21.13;14.83;;;12.40;99.90;;;;;;4943559;28;20273;-44
2023/04/18 09:28:32;;;;;;;22.60;15.23;;;12.50;99.90;;;;;;4943454;28;20294;-44
2023/04/18 09:31:15;;;;;;;22.70;15.40;;;12.50;99.90;;;;;;4941596;28;20206;-44
2023/04/18 09:33:56;;;;;;;16.07;14.07;;;12.60;99.90;;;;;;4943857;28;20270;-44
2023/04/18 09:36:29;;;;;;;18.00;14.13;;;12.60;99.90;;;;;;4955452;28;20214;-44
2023/04/18 09:38:59;;;;;;;18.97;13.20;;;12.70;99.90;;;;;;4942458;28;20234;-44
2023/04/18 09:41:29;;;;;;;18.27;13.83;;;12.80;99.90;;;;;;4938825;28;20219;-44
2023/04/18 09:44:10;;;;;;;20.70;14.43;;;12.80;99.90;;;;;;4940393;28;21087;-45
2023/04/18 09:46:42;;;;;;;19.57;14.03;;;12.90;99.90;;;;;;4934082;28;20684;-46
2023/04/18 09:49:18;;;;;;;19.57;13.97;;;12.90;99.90;;;;;;4935977;28;20224;-44
2023/04/18 09:51:45;;;;;;;16.33;13.97;;;12.90;99.90;;;;;;4940681;28;20290;-44
2023/04/18 09:54:20;;;;;;;15.70;12.47;;;13.00;99.90;;;;;;4962321;28;20292;-38
2023/04/18 09:56:49;;;;;;;18.10;12.73;;;13.00;99.90;;;;;;4937650;28;20581;-39
2023/04/18 09:59:26;;;;;;;15.83;11.93;;;13.10;99.90;;;;;;4955974;28;20673;-39
2023/04/18 10:01:58;;;;;;;14.47;12.47;;;13.10;99.90;;;;;;4942351;28;20219;-42
2023/04/18 10:04:27;;;;;;;17.00;12.33;;;13.10;99.90;;;;;;4975067;28;20695;-41
2023/04/18 10:06:57;;;;;;;13.20;10.57;;;13.20;99.90;;;;;;4974178;28;20243;-39
2023/04/18 10:09:30;;;;;;;14.43;10.70;;;13.30;99.90;;;;;;4942410;28;20681;-39
2023/04/18 10:12:05;;;;;;;15.87;12.00;;;13.30;99.90;;;;;;4955600;28;20207;-40
2023/04/18 10:14:39;;;;;;;12.47;10.70;;;13.40;99.90;;;;;;4985475;28;20207;-40
2023/04/18 10:17:16;;;;;;;14.17;10.60;;;13.40;99.90;;;;;;4943709;28;20219;-36
2023/04/18 10:20:04;;;;;;;20.33;11.17;;;13.40;99.90;;;;;;4942762;28;20213;-36
2023/04/18 10:22:32;;;;;;;12.80;10.37;;;13.50;99.90;;;;;;4945468;28;20238;-36
2023/04/18 10:25:02;;;;;;;12.50;10.10;;;13.60;99.90;;;;;;4946447;28;20235;-36
2023/04/18 10:27:50;;;;;;;11.83;10.10;;;13.70;99.90;;;;;;4974748;28;20827;-36
2023/04/18 10:30:43;;;;;;;12.73;10.10;;;13.70;99.90;;;;;;4943697;28;20760;-37
2023/04/18 10:33:37;;;;;;;14.30;10.77;;;13.90;99.90;;;;;;4941988;28;20298;-37
2023/04/18 10:36:11;;;;;;;18.47;10.43;;;14.00;99.90;;;;;;4940516;28;20681;-37
2023/04/18 10:38:47;;;;;;;13.00;11.57;;;14.00;99.90;;;;;;4953669;28;20879;-38
2023/04/18 10:41:22;;;;;;;16.53;12.13;;;14.10;99.90;;;;;;4939135;28;20703;-38
2023/04/18 10:44:17;;;;;;;13.80;11.60;;;14.10;99.90;;;;;;4940200;28;21005;-38
2023/04/18 10:46:52;;;;;;;15.97;11.97;;;14.10;99.90;;;;;;4943654;28;20226;-37
2023/04/18 10:49:27;;;;;;;14.57;11.93;;;14.10;99.90;;;;;;4942516;29;20306;-37
2023/04/18 10:52:09;;;;;;;14.97;12.33;;;14.20;99.90;;;;;;4944798;28;20206;-37
2023/04/18 10:55:07;;;;;;;13.47;12.07;;;14.30;99.90;;;;;;4950667;28;20298;-37
2023/04/18 10:57:38;;;;;;;15.05;11.77;;;14.30;99.90;;;;;;4943446;28;20211;-37
2023/04/18 11:00:16;;;;;;;14.83;11.20;;;14.20;99.90;;;;;;4945868;28;20273;-37
2023/04/18 11:02:58;;;;;;;13.83;10.40;;;14.20;99.90;;;;;;4953746;28;20654;-37
2023/04/18 11:05:29;;;;;;;16.13;10.77;;;14.20;99.90;;;;;;4943801;28;20216;-37
2023/04/18 11:07:57;;;;;;;13.80;10.83;;;14.20;99.90;;;;;;4942820;28;20309;-37
2023/04/18 11:10:26;;;;;;;13.23;11.20;;;14.20;99.90;;;;;;4952999;28;20219;-36
2023/04/18 11:12:55;;;;;;;13.83;11.50;;;14.20;99.90;;;;;;4929835;29;20880;-36
2023/04/18 11:15:24;;;;;;;12.83;10.90;;;14.10;99.90;;;;;;4942889;28;20208;-38
2023/04/18 11:17:59;;;;;;;15.17;10.93;;;14.20;99.90;;;;;;4936993;28;20222;-38
2023/04/18 11:20:39;;;;;;;13.10;10.80;;;14.20;99.90;;;;;;4938335;28;20374;-37
2023/04/18 11:23:23;;;;;;;10.93;9.52;;;14.10;99.90;;;;;;4939189;28;20635;-38
2023/04/18 11:25:55;;;;;;;13.10;10.00;;;14.20;99.90;;;;;;4938038;28;20199;-38
2023/04/18 11:28:23;;;;;;;14.13;10.47;;;14.10;99.90;;;;;;4940448;28;20530;-38
2023/04/18 11:30:51;;;;;;;12.47;9.80;;;14.20;99.90;;;;;;4937940;28;20199;-37
2023/04/18 11:33:20;;;;;;;11.57;9.47;;;14.30;99.90;;;;;;4934884;28;20251;-38
2023/04/18 11:35:47;;;;;;;12.43;9.10;;;14.30;99.90;;;;;;4968595;28;20570;-37
2023/04/18 11:38:15;;;;;;;16.67;10.50;;;14.30;99.90;;;;;;4941957;28;20203;-38
2023/04/18 11:40:51;;;;;;;13.07;9.50;;;14.30;99.90;;;;;;4935784;28;20208;-38
2023/04/18 11:43:24;;;;;;;11.43;9.23;;;14.40;99.90;;;;;;4957204;28;20728;-38
2023/04/18 11:45:56;;;;;;;8.70;7.83;;;14.40;99.90;;;;;;4945498;28;20686;-38
2023/04/18 11:48:39;;;;;;;9.03;8.03;;;14.50;99.90;;;;;;4943630;28;20232;-38
2023/04/18 11:51:27;;;;;;;13.55;8.55;;;14.60;99.90;;;;;;4972301;28;20648;-38
2023/04/18 11:53:59;;;;;;;12.43;7.50;;;14.50;99.90;;;;;;4936793;29;20393;-38
2023/04/18 11:56:27;;;;;;;9.07;7.73;;;14.50;99.90;;;;;;4933389;28;20211;-38
2023/04/18 11:58:56;;;;;;;9.47;7.50;;;14.60;99.90;;;;;;4954090;28;20279;-38
2023/04/18 12:01:25;;;;;;;9.85;6.90;;;14.60;99.90;;;;;;4939129;28;20284;-38
2023/04/18 12:04:03;;;;;;;10.35;7.25;;;14.70;99.90;;;;;;4937409;28;20196;-37
2023/04/18 12:06:52;;;;;;;8.43;7.07;;;14.70;99.90;;;;;;4936013;28;20749;-38
2023/04/18 12:09:26;;;;;;;11.25;6.50;;;14.80;99.90;;;;;;4940699;28;20222;-38
2023/04/18 12:12:01;;;;;;;7.63;6.63;;;14.80;99.90;;;;;;4952522;28;20306;-38
2023/04/18 12:14:34;;;;;;;8.85;6.50;;;14.80;99.90;;;;;;4934840;28;20199;-37
2023/04/18 12:17:02;;;;;;;6.88;5.90;;;14.80;99.90;;;;;;4939061;28;20208;-38
2023/04/18 12:19:34;;;;;;;7.03;6.03;;;14.80;99.90;;;;;;4941120;28;20219;-38
2023/04/18 12:22:03;;;;;;;7.17;6.37;;;14.80;99.90;;;;;;4936991;28;20306;-38
2023/04/18 12:24:31;;;;;;;8.90;6.50;;;14.90;99.90;;;;;;4938475;28;20267;-38
2023/04/18 12:27:01;;;;;;;9.63;6.87;;;14.80;99.90;;;;;;4935728;28;20315;-38
2023/04/18 12:29:31;;;;;;;6.88;6.13;;;14.80;99.90;;;;;;4938344;28;20223;-37
2023/04/18 12:32:02;;;;;;;7.40;5.70;;;14.90;99.90;;;;;;4936087;29;20650;-38
2023/04/18 12:34:32;;;;;;;6.70;6.00;;;14.90;99.90;;;;;;4937947;28;20818;-37
2023/04/18 12:36:59;;;;;;;7.80;6.70;;;14.90;99.90;;;;;;4937231;28;20241;-37
2023/04/18 12:39:29;;;;;;;6.90;6.20;;;14.90;99.90;;;;;;4936303;28;20211;-37
2023/04/18 12:41:58;;;;;;;8.68;6.68;;;15.00;99.90;;;;;;4948791;28;20606;-38
2023/04/18 12:44:27;;;;;;;25.90;8.10;;;15.00;99.90;;;;;;4934864;28;20587;-38
2023/04/18 12:47:00;;;;;;;10.80;6.22;;;15.10;99.90;;;;;;4937301;28;20333;-38
2023/04/18 12:49:27;;;;;;;12.30;6.85;;;15.20;99.90;;;;;;4935197;28;20211;-38
2023/04/18 12:52:01;;;;;;;8.38;7.57;;;15.20;99.90;;;;;;4935322;29;20207;-38